Pagrindinis puslapis
METAR-TAF:

METAR-TAF

Oro uostai :

Ikikė, Čilė

platuma: 20-32S, ilguma: 070-11W, Aukštis: 52 m

Dabartinis oras

Ataskaita buvo paskelbta 42 minutes, ne 21:00 UTC
Vėjas 9 kt iš Pietvakarių
Temperatūra 17°C
Drėgmė 68%
Slėgis 1014 hPa
Matomumas 10 km arba daugiau
Su prošvaistėmis ne aukštis 2700 ft

METAR: SCDA 262100Z 23009KT 9999 BKN027 17/11 Q1014

Laikas: 17:42 (21:42 UTC)

Prognozė

Ataskaita buvo paskelbta 5 valandos ir 34 minutes, ne 16:08 UTC
Prognozė galioja nuo 26 metu 18 UTC su 27 metu 18 UTC
Vėjas 10 kt iš Vakarų/Pietvakarių
Matomumas 10 km arba daugiau
Mažai debesys ne aukštis 2500 ft
Tapsmas
nuo 26 metu 23 UTC su 27 metu 01 UTC
Vėjas 4 kt iš Pietų/Pietvakarių
Apsiniaukę ne aukštis 2500 ft
Tapsmas
nuo 27 metu 04 UTC su 27 metu 06 UTC
Vėjas 7 kt iš Pietų
Tapsmas
nuo 27 metu 15 UTC su 27 metu 17 UTC
Vėjas 15 kt iš Pietų/Pietvakarių
Mažai debesys ne aukštis 2500 ft

TAF: SCDA 261608Z 2618/2718 24010KT 9999 FEW025 TX18/2618Z TN16/2710Z BECMG 2623/2701 21004KT OVC025 BECMG 2704/2706 19007KT BECMG 2715/2717 21015KT FEW025

Orai ataskaitas ir orų prognozės (METAR, TAF).

turimą stotys yra geltonos ir raudonos taškus žemėlapyje.

Perkelti pele per norėdami pamatyti stoties vardą.

Tada spustelėkite, norėdami matyti oro stebėjimo ir prognozės.

Norėdami pakeisti žemėlapį: spustelėkite ant žalios mygtukų su juodo kryžiaus žemyn,; žalią mygtuką su brūkšneliu, jei norite nutolinti; arba žalių rodyklių gretimoms žemėlapius.


METAR-TAF: